Platina, California
Current Conditions -  °F | °C
As of 9:35 AM on Monday 24 Nov 2014 (Local Time) from KO54 Reporting Station
Overcast Overcast  
Wind Chill: 36°   Ceiling: 400
Heat Index: 36°   Visibility: 10mi
Dew Point: 32°   Wind: 3mph
Humidity: 87%   Direction: 260°W
Pressure: 30.47"   Gusts: NA
Location:  40.36°N, 122.9°W
Report Text: KO54 241735Z AUTO 26003KT 10SM OVC004 02/00 A3047 RMK AO1
Loading
Personal Weather Stations






























Interactive Weather Map New forecast layout! Learn more

10-Day Weather Forecast

Advertisements
Track Severe Weather on mobile